Richey, MT

11:35 PM MDT on August 27, 2014 (GMT -0600)
SE Bloomfield | Change Station
CLOSE
Current Station
Personal Weather Station
Location: Bloomfield, MT
Elevation: 2753 ft
Nearby Weather Stations

Elev 2753 ft 47.36 °N, 104.79 °W | Updated 4 seconds ago

Clear
Clear
66.3 °F
Feels Like 66.3 °F
N
8.0
Wind Variable Wind from South
Gusts 13.0 mph

Today
High -- | Low -- °F
--% Chance of Precip.
Yesterday
High -- | Low -- °F
Precip. -- in
6:11 AM 7:50 PM
Waxing Crescent, 6% visible
Pressure 29.99 in
Visibility 10.0 miles
Clouds Few 9000 ft
Dew Point 61 °F
Humidity 83%
Rainfall 0.00 in
Snow Depth Not available.
UV 0 out of 12
Pollen 9.30 out of 12
Air Quality Not available.
Flu Activity Not available.
METAR KGDV 280515Z AUTO 18011KT 10SM FEW090 19/16 A2999 RMK AO1

More Conditions Fewer Conditions

Pressure 29.99 in
Visibility 10.0 miles
Clouds Few 9000 ft
Dew Point 61 °F
Humidity 83%
Rainfall 0.00 in
Snow Depth Not available.
UV 0 out of 12
Pollen 9.30 out of 12
Air Quality Not available.
Flu Activity Not available.
METAR KGDV 280515Z AUTO 18011KT 10SM FEW090 19/16 A2999 RMK AO1

More Conditions Fewer Conditions

10-Day Weather Forecast

Almanac

Astronomy

Aug. 27, 2014 Rise Set
Actual Time 6:11 AM MDT 7:50 PM MDT
Civil Twilight 5:39 AM MDT 8:22 PM MDT
Nautical Twilight 4:59 AM MDT 9:01 PM MDT
Astronomical Twilight 4:16 AM MDT 9:44 PM MDT
Moon 8:21 AM MDT (8/27) 8:30 PM MDT (8/27)
Length of Visible Light 14h 43m
Length of Day
13h 38m
Tomorrow will be 3m 16s shorter.
Waxing Crescent, 6% of the Moon is Illuminated
Aug 28
Waxing Crescent
Sep 2
First Quarter
Sep 8
Full
Sep 15
Last Quarter
Sep 24
New

Yesterday's Extremes

State Highs State Lows

Community

WunderPhotos

Upload Photos

1,747,909 photos uploaded!

Nearby

Snow Depth

Station Depth Elevation
Crystal Lake 0 in 6050 ft
Cole Creek 1 in 7850 ft
Spur Park 0 in 8100 ft
Porcupine 1 in 6500 ft
Onion Park 0 in 7410 ft

Earthquake Activity

City Distance Mag. Time & Date
No recent earthquake activity has been reported nearby.
Minimum magnitude displayed is 2.5.

Coastal Water Temperatures

Place Temperature
No Stations Reporting

Nearby Weather Stations